sensor_id;sensor_type;location;lat;lon;timestamp;pressure;altitude;pressure_sealevel;temperature;humidity
36598;BME280;22607;49.550;11.940;2023-06-04T00:02:09;97046.84;;;13.34;42.34
36598;BME280;22607;49.550;11.940;2023-06-04T00:04:36;97033.50;;;13.36;42.80
36598;BME280;22607;49.550;11.940;2023-06-04T00:07:03;97033.66;;;13.34;43.16
36598;BME280;22607;49.550;11.940;2023-06-04T00:09:30;97030.13;;;13.27;42.70
36598;BME280;22607;49.550;11.940;2023-06-04T00:11:56;97034.78;;;13.25;44.55
36598;BME280;22607;49.550;11.940;2023-06-04T00:14:23;97032.06;;;13.18;42.89
36598;BME280;22607;49.550;11.940;2023-06-04T00:16:57;97027.22;;;13.22;43.07
36598;BME280;22607;49.550;11.940;2023-06-04T00:19:24;97026.69;;;13.11;43.06
36598;BME280;22607;49.550;11.940;2023-06-04T00:21:51;97024.63;;;12.92;43.80
36598;BME280;22607;49.550;11.940;2023-06-04T00:24:18;97025.06;;;12.95;44.66
36598;BME280;22607;49.550;11.940;2023-06-04T00:26:44;97030.25;;;12.89;44.57
36598;BME280;22607;49.550;11.940;2023-06-04T00:29:14;97024.25;;;12.95;43.32
36598;BME280;22607;49.550;11.940;2023-06-04T00:31:41;97018.16;;;12.94;44.74
36598;BME280;22607;49.550;11.940;2023-06-04T00:34:08;97018.88;;;12.88;43.30
36598;BME280;22607;49.550;11.940;2023-06-04T00:36:36;97019.25;;;12.85;43.08
36598;BME280;22607;49.550;11.940;2023-06-04T00:39:03;97017.53;;;12.77;43.42
36598;BME280;22607;49.550;11.940;2023-06-04T00:41:29;97020.97;;;12.63;44.07
36598;BME280;22607;49.550;11.940;2023-06-04T00:43:56;97015.69;;;12.63;43.64
36598;BME280;22607;49.550;11.940;2023-06-04T00:46:26;97008.78;;;12.62;43.39
36598;BME280;22607;49.550;11.940;2023-06-04T00:49:05;97026.13;;;12.56;44.44
36598;BME280;22607;49.550;11.940;2023-06-04T00:51:32;97022.84;;;12.39;44.13
36598;BME280;22607;49.550;11.940;2023-06-04T00:53:59;97025.75;;;12.29;44.59
36598;BME280;22607;49.550;11.940;2023-06-04T00:56:28;97019.03;;;12.26;43.62
36598;BME280;22607;49.550;11.940;2023-06-04T00:58:54;97023.50;;;12.41;44.15
36598;BME280;22607;49.550;11.940;2023-06-04T01:03:55;97020.81;;;12.26;44.25
36598;BME280;22607;49.550;11.940;2023-06-04T01:08:59;97022.22;;;12.37;44.58
36598;BME280;22607;49.550;11.940;2023-06-04T01:14:01;97010.47;;;12.24;44.80
36598;BME280;22607;49.550;11.940;2023-06-04T01:16:34;97014.94;;;12.24;44.56
36598;BME280;22607;49.550;11.940;2023-06-04T01:19:04;97016.56;;;12.25;44.76
36598;BME280;22607;49.550;11.940;2023-06-04T01:21:37;97013.81;;;12.18;44.65
36598;BME280;22607;49.550;11.940;2023-06-04T01:24:05;97019.09;;;12.18;44.10
36598;BME280;22607;49.550;11.940;2023-06-04T01:26:33;97014.16;;;12.15;45.03
36598;BME280;22607;49.550;11.940;2023-06-04T01:29:00;97004.63;;;12.14;44.89
36598;BME280;22607;49.550;11.940;2023-06-04T01:31:29;96995.56;;;12.16;44.60
36598;BME280;22607;49.550;11.940;2023-06-04T01:33:59;97013.25;;;12.07;44.85
36598;BME280;22607;49.550;11.940;2023-06-04T01:36:26;97012.88;;;11.87;45.11
36598;BME280;22607;49.550;11.940;2023-06-04T01:38:55;97008.50;;;11.79;44.86
36598;BME280;22607;49.550;11.940;2023-06-04T01:41:22;97010.94;;;11.81;44.95
36598;BME280;22607;49.550;11.940;2023-06-04T01:43:49;97008.91;;;11.91;45.27
36598;BME280;22607;49.550;11.940;2023-06-04T01:46:16;97006.00;;;11.86;45.37
36598;BME280;22607;49.550;11.940;2023-06-04T01:48:42;97015.84;;;11.84;44.82
36598;BME280;22607;49.550;11.940;2023-06-04T01:51:09;97005.34;;;11.84;45.14
36598;BME280;22607;49.550;11.940;2023-06-04T01:53:36;97016.06;;;11.74;45.49
36598;BME280;22607;49.550;11.940;2023-06-04T01:56:02;97019.31;;;11.85;45.24
36598;BME280;22607;49.550;11.940;2023-06-04T01:58:29;97025.50;;;11.92;45.04
36598;BME280;22607;49.550;11.940;2023-06-04T02:00:58;97020.84;;;11.79;45.53
36598;BME280;22607;49.550;11.940;2023-06-04T02:03:26;97032.22;;;11.71;45.42
36598;BME280;22607;49.550;11.940;2023-06-04T02:05:54;97024.16;;;11.73;45.64
36598;BME280;22607;49.550;11.940;2023-06-04T02:08:20;97032.19;;;11.79;45.42
36598;BME280;22607;49.550;11.940;2023-06-04T02:10:47;97031.22;;;11.72;45.13
36598;BME280;22607;49.550;11.940;2023-06-04T02:13:15;97042.09;;;11.69;45.93
36598;BME280;22607;49.550;11.940;2023-06-04T02:15:41;97038.84;;;11.67;45.12
36598;BME280;22607;49.550;11.940;2023-06-04T02:18:14;97044.22;;;11.74;45.56
36598;BME280;22607;49.550;11.940;2023-06-04T02:20:45;97040.16;;;11.63;45.59
36598;BME280;22607;49.550;11.940;2023-06-04T02:23:12;97033.66;;;11.50;45.72
36598;BME280;22607;49.550;11.940;2023-06-04T02:25:39;97038.91;;;11.50;45.55
36598;BME280;22607;49.550;11.940;2023-06-04T02:28:06;97041.97;;;11.62;45.62
36598;BME280;22607;49.550;11.940;2023-06-04T02:30:33;97041.53;;;11.50;46.27
36598;BME280;22607;49.550;11.940;2023-06-04T02:33:00;97047.09;;;11.55;46.62
36598;BME280;22607;49.550;11.940;2023-06-04T02:35:28;97039.28;;;11.47;46.64
36598;BME280;22607;49.550;11.940;2023-06-04T02:37:55;97034.56;;;11.34;47.59
36598;BME280;22607;49.550;11.940;2023-06-04T02:40:25;97048.03;;;11.39;47.63
36598;BME280;22607;49.550;11.940;2023-06-04T02:42:54;97052.13;;;11.42;47.63
36598;BME280;22607;49.550;11.940;2023-06-04T02:45:23;97044.16;;;11.19;47.81
36598;BME280;22607;49.550;11.940;2023-06-04T02:47:49;97050.91;;;11.21;47.60
36598;BME280;22607;49.550;11.940;2023-06-04T02:50:16;97052.75;;;11.12;47.96
36598;BME280;22607;49.550;11.940;2023-06-04T02:52:43;97054.22;;;11.15;48.06
36598;BME280;22607;49.550;11.940;2023-06-04T02:55:10;97052.59;;;11.14;48.46
36598;BME280;22607;49.550;11.940;2023-06-04T02:57:40;97050.16;;;11.04;49.36
36598;BME280;22607;49.550;11.940;2023-06-04T03:00:13;97055.25;;;11.06;49.66
36598;BME280;22607;49.550;11.940;2023-06-04T03:02:44;97049.69;;;11.00;50.04
36598;BME280;22607;49.550;11.940;2023-06-04T03:05:14;97051.53;;;10.83;50.35
36598;BME280;22607;49.550;11.940;2023-06-04T03:07:42;97050.53;;;10.84;50.37
36598;BME280;22607;49.550;11.940;2023-06-04T03:10:12;97055.94;;;10.91;51.00
36598;BME280;22607;49.550;11.940;2023-06-04T03:12:41;97059.91;;;10.87;51.49
36598;BME280;22607;49.550;11.940;2023-06-04T03:15:08;97060.53;;;10.81;52.48
36598;BME280;22607;49.550;11.940;2023-06-04T03:17:37;97056.97;;;10.65;52.55
36598;BME280;22607;49.550;11.940;2023-06-04T03:20:04;97062.22;;;10.65;53.00
36598;BME280;22607;49.550;11.940;2023-06-04T03:22:31;97053.03;;;10.69;53.72
36598;BME280;22607;49.550;11.940;2023-06-04T03:25:00;97069.78;;;10.60;54.74
36598;BME280;22607;49.550;11.940;2023-06-04T03:27:27;97069.47;;;10.55;54.84
36598;BME280;22607;49.550;11.940;2023-06-04T03:29:53;97060.59;;;10.47;53.27
36598;BME280;22607;49.550;11.940;2023-06-04T03:32:20;97058.34;;;10.44;53.31
36598;BME280;22607;49.550;11.940;2023-06-04T03:34:46;97063.59;;;10.44;53.04
36598;BME280;22607;49.550;11.940;2023-06-04T03:37:13;97061.13;;;10.51;53.97
36598;BME280;22607;49.550;11.940;2023-06-04T03:39:39;97065.38;;;10.44;54.51
36598;BME280;22607;49.550;11.940;2023-06-04T03:42:07;97069.16;;;10.49;54.12
36598;BME280;22607;49.550;11.940;2023-06-04T03:44:34;97076.38;;;10.47;54.97
36598;BME280;22607;49.550;11.940;2023-06-04T03:47:00;97088.34;;;10.42;55.55
36598;BME280;22607;49.550;11.940;2023-06-04T03:49:27;97078.00;;;10.32;56.01
36598;BME280;22607;49.550;11.940;2023-06-04T03:51:54;97083.56;;;10.29;56.15
36598;BME280;22607;49.550;11.940;2023-06-04T03:54:21;97084.56;;;10.28;55.90
36598;BME280;22607;49.550;11.940;2023-06-04T03:56:57;97072.56;;;10.17;55.76
36598;BME280;22607;49.550;11.940;2023-06-04T03:59:23;97076.19;;;10.16;55.46
36598;BME280;22607;49.550;11.940;2023-06-04T04:01:50;97078.34;;;10.20;55.30
36598;BME280;22607;49.550;11.940;2023-06-04T04:04:19;97076.34;;;10.14;55.63
36598;BME280;22607;49.550;11.940;2023-06-04T04:06:45;97071.91;;;10.06;55.92
36598;BME280;22607;49.550;11.940;2023-06-04T04:09:12;97079.97;;;10.13;55.78
36598;BME280;22607;49.550;11.940;2023-06-04T04:11:38;97077.00;;;10.24;55.50
36598;BME280;22607;49.550;11.940;2023-06-04T04:14:05;97085.34;;;10.36;55.52
36598;BME280;22607;49.550;11.940;2023-06-04T04:16:32;97089.50;;;10.39;55.31
36598;BME280;22607;49.550;11.940;2023-06-04T04:18:58;97079.63;;;10.41;54.91
36598;BME280;22607;49.550;11.940;2023-06-04T04:21:25;97084.72;;;10.34;56.24
36598;BME280;22607;49.550;11.940;2023-06-04T04:23:55;97078.34;;;10.54;55.94
36598;BME280;22607;49.550;11.940;2023-06-04T04:26:21;97079.97;;;10.63;55.70
36598;BME280;22607;49.550;11.940;2023-06-04T04:28:48;97080.94;;;10.70;55.99
36598;BME280;22607;49.550;11.940;2023-06-04T04:31:14;97090.78;;;10.76;55.93
36598;BME280;22607;49.550;11.940;2023-06-04T04:33:41;97092.72;;;10.91;55.78
36598;BME280;22607;49.550;11.940;2023-06-04T04:36:09;97075.34;;;11.93;53.47
36598;BME280;22607;49.550;11.940;2023-06-04T04:38:39;97084.88;;;12.95;50.55
36598;BME280;22607;49.550;11.940;2023-06-04T04:41:07;97075.09;;;13.71;49.05
36598;BME280;22607;49.550;11.940;2023-06-04T04:43:36;97068.72;;;14.24;47.51
36598;BME280;22607;49.550;11.940;2023-06-04T04:46:05;97080.34;;;14.80;47.84
36598;BME280;22607;49.550;11.940;2023-06-04T04:48:32;97073.91;;;14.89;48.29
36598;BME280;22607;49.550;11.940;2023-06-04T04:51:00;97069.31;;;15.05;47.81
36598;BME280;22607;49.550;11.940;2023-06-04T04:53:27;97060.72;;;15.94;45.93
36598;BME280;22607;49.550;11.940;2023-06-04T04:55:54;97069.72;;;16.53;44.70
36598;BME280;22607;49.550;11.940;2023-06-04T04:58:20;97070.94;;;16.58;43.92
36598;BME280;22607;49.550;11.940;2023-06-04T05:00:47;97067.22;;;16.99;41.85
36598;BME280;22607;49.550;11.940;2023-06-04T05:03:14;97073.28;;;17.20;41.18
36598;BME280;22607;49.550;11.940;2023-06-04T05:05:41;97064.69;;;17.31;40.57
36598;BME280;22607;49.550;11.940;2023-06-04T05:08:08;97081.56;;;17.51;40.33
36598;BME280;22607;49.550;11.940;2023-06-04T05:10:34;97078.09;;;17.50;39.80
36598;BME280;22607;49.550;11.940;2023-06-04T05:13:02;97073.72;;;17.69;39.76
36598;BME280;22607;49.550;11.940;2023-06-04T05:15:29;97073.56;;;17.57;41.65
36598;BME280;22607;49.550;11.940;2023-06-04T05:17:56;97079.03;;;18.08;40.68
36598;BME280;22607;49.550;11.940;2023-06-04T05:20:24;97078.44;;;18.06;40.89
36598;BME280;22607;49.550;11.940;2023-06-04T05:22:50;97081.03;;;18.71;39.58
36598;BME280;22607;49.550;11.940;2023-06-04T05:25:18;97083.41;;;18.98;39.40
36598;BME280;22607;49.550;11.940;2023-06-04T05:27:44;97078.97;;;19.36;39.01
36598;BME280;22607;49.550;11.940;2023-06-04T05:30:11;97079.94;;;19.41;38.74
36598;BME280;22607;49.550;11.940;2023-06-04T05:32:38;97078.44;;;19.64;38.61
36598;BME280;22607;49.550;11.940;2023-06-04T05:35:07;97087.41;;;19.82;37.97
36598;BME280;22607;49.550;11.940;2023-06-04T05:37:34;97084.59;;;19.77;37.19
36598;BME280;22607;49.550;11.940;2023-06-04T05:40:01;97080.13;;;20.08;36.66
36598;BME280;22607;49.550;11.940;2023-06-04T05:42:30;97086.13;;;20.03;36.32
36598;BME280;22607;49.550;11.940;2023-06-04T05:44:56;97084.94;;;19.68;36.73
36598;BME280;22607;49.550;11.940;2023-06-04T05:47:24;97092.56;;;19.46;36.91
36598;BME280;22607;49.550;11.940;2023-06-04T05:49:51;97085.53;;;19.52;37.14
36598;BME280;22607;49.550;11.940;2023-06-04T05:52:17;97092.63;;;19.58;37.74
36598;BME280;22607;49.550;11.940;2023-06-04T05:54:44;97092.06;;;19.87;37.10
36598;BME280;22607;49.550;11.940;2023-06-04T05:57:11;97086.84;;;20.11;36.62
36598;BME280;22607;49.550;11.940;2023-06-04T05:59:37;97081.94;;;19.77;36.46
36598;BME280;22607;49.550;11.940;2023-06-04T06:02:05;97088.66;;;19.79;36.80
36598;BME280;22607;49.550;11.940;2023-06-04T06:04:39;97086.59;;;20.00;37.36
36598;BME280;22607;49.550;11.940;2023-06-04T06:07:06;97086.03;;;20.10;36.51
36598;BME280;22607;49.550;11.940;2023-06-04T06:09:33;97087.69;;;20.23;36.69
36598;BME280;22607;49.550;11.940;2023-06-04T06:11:59;97091.38;;;20.10;36.40
36598;BME280;22607;49.550;11.940;2023-06-04T06:14:26;97094.97;;;20.16;36.99
36598;BME280;22607;49.550;11.940;2023-06-04T06:16:52;97092.47;;;20.45;36.45
36598;BME280;22607;49.550;11.940;2023-06-04T06:19:20;97094.47;;;20.73;36.29
36598;BME280;22607;49.550;11.940;2023-06-04T06:21:49;97088.69;;;20.77;35.72
36598;BME280;22607;49.550;11.940;2023-06-04T06:24:19;97091.59;;;20.63;36.56
36598;BME280;22607;49.550;11.940;2023-06-04T06:26:46;97100.94;;;20.30;36.19
36598;BME280;22607;49.550;11.940;2023-06-04T06:29:12;97104.47;;;20.12;36.40
36598;BME280;22607;49.550;11.940;2023-06-04T06:31:39;97108.97;;;20.54;35.67
36598;BME280;22607;49.550;11.940;2023-06-04T06:34:06;97102.38;;;20.56;36.36
36598;BME280;22607;49.550;11.940;2023-06-04T06:36:33;97109.38;;;20.93;35.63
36598;BME280;22607;49.550;11.940;2023-06-04T06:39:00;97121.44;;;21.08;36.21
36598;BME280;22607;49.550;11.940;2023-06-04T06:41:26;97116.47;;;20.88;35.33
36598;BME280;22607;49.550;11.940;2023-06-04T06:43:54;97115.38;;;20.77;35.36
36598;BME280;22607;49.550;11.940;2023-06-04T06:46:21;97113.50;;;20.77;35.91
36598;BME280;22607;49.550;11.940;2023-06-04T06:48:47;97120.47;;;21.38;35.92
36598;BME280;22607;49.550;11.940;2023-06-04T06:51:14;97114.19;;;21.44;35.26
36598;BME280;22607;49.550;11.940;2023-06-04T06:53:43;97112.22;;;21.40;35.20
36598;BME280;22607;49.550;11.940;2023-06-04T06:56:10;97113.69;;;21.59;35.03
36598;BME280;22607;49.550;11.940;2023-06-04T06:58:36;97120.84;;;21.71;35.05
36598;BME280;22607;49.550;11.940;2023-06-04T07:01:03;97108.44;;;22.06;35.63
36598;BME280;22607;49.550;11.940;2023-06-04T07:03:30;97107.16;;;21.67;34.80
36598;BME280;22607;49.550;11.940;2023-06-04T07:05:57;97117.97;;;21.72;34.37
36598;BME280;22607;49.550;11.940;2023-06-04T07:08:26;97118.56;;;21.74;35.01
36598;BME280;22607;49.550;11.940;2023-06-04T07:10:53;97114.63;;;21.65;34.91
36598;BME280;22607;49.550;11.940;2023-06-04T07:13:20;97114.44;;;22.13;35.39
36598;BME280;22607;49.550;11.940;2023-06-04T07:15:52;97109.38;;;22.46;34.83
36598;BME280;22607;49.550;11.940;2023-06-04T07:18:20;97107.34;;;22.53;33.37
36598;BME280;22607;49.550;11.940;2023-06-04T07:20:52;97110.47;;;22.79;33.60
36598;BME280;22607;49.550;11.940;2023-06-04T07:23:22;97109.66;;;22.78;33.53
36598;BME280;22607;49.550;11.940;2023-06-04T07:25:51;97115.34;;;22.65;33.78
36598;BME280;22607;49.550;11.940;2023-06-04T07:28:18;97118.69;;;22.43;34.53
36598;BME280;22607;49.550;11.940;2023-06-04T07:30:45;97102.97;;;22.98;32.99
36598;BME280;22607;49.550;11.940;2023-06-04T07:33:16;97107.03;;;23.01;33.30
36598;BME280;22607;49.550;11.940;2023-06-04T07:35:42;97107.84;;;23.01;33.00
36598;BME280;22607;49.550;11.940;2023-06-04T07:38:09;97101.94;;;23.39;33.32
36598;BME280;22607;49.550;11.940;2023-06-04T07:40:36;97103.84;;;23.43;33.28
36598;BME280;22607;49.550;11.940;2023-06-04T07:43:03;97101.06;;;23.33;33.61
36598;BME280;22607;49.550;11.940;2023-06-04T07:45:29;97097.38;;;23.62;32.93
36598;BME280;22607;49.550;11.940;2023-06-04T07:48:01;97098.19;;;23.40;33.67
36598;BME280;22607;49.550;11.940;2023-06-04T07:50:28;97108.06;;;23.56;32.50
36598;BME280;22607;49.550;11.940;2023-06-04T07:52:54;97093.66;;;23.63;32.15
36598;BME280;22607;49.550;11.940;2023-06-04T07:55:20;97108.56;;;23.81;31.44
36598;BME280;22607;49.550;11.940;2023-06-04T07:57:47;97109.03;;;24.22;31.85
36598;BME280;22607;49.550;11.940;2023-06-04T08:00:15;97106.31;;;24.50;32.95
36598;BME280;22607;49.550;11.940;2023-06-04T08:02:43;97102.81;;;24.49;30.03
36598;BME280;22607;49.550;11.940;2023-06-04T08:05:11;97095.56;;;24.45;31.22
36598;BME280;22607;49.550;11.940;2023-06-04T08:07:40;97088.72;;;24.64;31.28
36598;BME280;22607;49.550;11.940;2023-06-04T08:10:07;97099.28;;;24.44;31.32
36598;BME280;22607;49.550;11.940;2023-06-04T08:12:35;97103.63;;;24.50;30.57
36598;BME280;22607;49.550;11.940;2023-06-04T08:15:03;97095.97;;;24.69;31.00
36598;BME280;22607;49.550;11.940;2023-06-04T08:17:29;97083.38;;;24.37;31.00
36598;BME280;22607;49.550;11.940;2023-06-04T08:19:56;97094.47;;;24.46;30.71
36598;BME280;22607;49.550;11.940;2023-06-04T08:22:22;97097.50;;;24.22;31.06
36598;BME280;22607;49.550;11.940;2023-06-04T08:24:52;97088.47;;;24.66;30.38
36598;BME280;22607;49.550;11.940;2023-06-04T08:27:18;97091.19;;;24.38;30.38
36598;BME280;22607;49.550;11.940;2023-06-04T08:29:45;97085.25;;;24.69;30.43
36598;BME280;22607;49.550;11.940;2023-06-04T08:32:12;97090.00;;;24.95;30.79
36598;BME280;22607;49.550;11.940;2023-06-04T08:34:38;97095.22;;;24.74;30.13
36598;BME280;22607;49.550;11.940;2023-06-04T08:37:05;97089.81;;;24.69;30.50
36598;BME280;22607;49.550;11.940;2023-06-04T08:39:32;97092.41;;;24.91;30.08
36598;BME280;22607;49.550;11.940;2023-06-04T08:42:01;97082.38;;;24.81;29.28
36598;BME280;22607;49.550;11.940;2023-06-04T08:44:30;97095.47;;;25.10;29.20
36598;BME280;22607;49.550;11.940;2023-06-04T08:47:05;97093.28;;;25.02;29.42
36598;BME280;22607;49.550;11.940;2023-06-04T08:49:36;97082.19;;;24.55;29.89
36598;BME280;22607;49.550;11.940;2023-06-04T08:52:03;97102.25;;;24.80;30.08
36598;BME280;22607;49.550;11.940;2023-06-04T08:54:29;97092.00;;;24.77;29.33
36598;BME280;22607;49.550;11.940;2023-06-04T08:56:57;97095.34;;;25.38;30.20
36598;BME280;22607;49.550;11.940;2023-06-04T08:59:24;97096.88;;;25.98;28.39
36598;BME280;22607;49.550;11.940;2023-06-04T09:01:53;97093.09;;;25.78;29.01
36598;BME280;22607;49.550;11.940;2023-06-04T09:04:20;97089.97;;;26.33;28.69
36598;BME280;22607;49.550;11.940;2023-06-04T09:06:48;97089.38;;;26.20;28.14
36598;BME280;22607;49.550;11.940;2023-06-04T09:09:16;97093.97;;;26.20;27.80
36598;BME280;22607;49.550;11.940;2023-06-04T09:11:55;97102.81;;;26.00;28.35
36598;BME280;22607;49.550;11.940;2023-06-04T09:14:22;97104.44;;;26.11;28.73
36598;BME280;22607;49.550;11.940;2023-06-04T09:16:53;97098.94;;;25.59;29.44
36598;BME280;22607;49.550;11.940;2023-06-04T09:19:29;97097.63;;;25.72;28.21
36598;BME280;22607;49.550;11.940;2023-06-04T09:21:57;97102.31;;;26.08;28.34
36598;BME280;22607;49.550;11.940;2023-06-04T09:24:38;97095.03;;;26.03;27.68
36598;BME280;22607;49.550;11.940;2023-06-04T09:27:19;97084.00;;;26.00;28.18
36598;BME280;22607;49.550;11.940;2023-06-04T09:29:52;97086.13;;;25.92;28.18
36598;BME280;22607;49.550;11.940;2023-06-04T09:32:25;97090.66;;;25.81;29.12
36598;BME280;22607;49.550;11.940;2023-06-04T09:35:11;97095.84;;;26.09;27.49
36598;BME280;22607;49.550;11.940;2023-06-04T09:37:51;97099.28;;;25.73;29.24
36598;BME280;22607;49.550;11.940;2023-06-04T09:40:24;97095.03;;;25.98;27.39
36598;BME280;22607;49.550;11.940;2023-06-04T09:42:52;97085.13;;;26.30;27.73
36598;BME280;22607;49.550;11.940;2023-06-04T09:45:32;97092.13;;;26.31;28.26
36598;BME280;22607;49.550;11.940;2023-06-04T09:47:59;97094.25;;;26.13;27.68
36598;BME280;22607;49.550;11.940;2023-06-04T09:50:30;97087.03;;;26.34;26.75
36598;BME280;22607;49.550;11.940;2023-06-04T09:52:58;97086.88;;;25.77;26.79
36598;BME280;22607;49.550;11.940;2023-06-04T09:55:25;97085.38;;;26.59;27.33
36598;BME280;22607;49.550;11.940;2023-06-04T09:57:52;97087.25;;;26.74;26.69
36598;BME280;22607;49.550;11.940;2023-06-04T10:00:22;97071.38;;;26.47;27.55
36598;BME280;22607;49.550;11.940;2023-06-04T10:02:56;97080.72;;;27.22;25.79
36598;BME280;22607;49.550;11.940;2023-06-04T10:05:24;97080.47;;;27.19;25.90
36598;BME280;22607;49.550;11.940;2023-06-04T10:07:52;97085.13;;;26.66;26.54
36598;BME280;22607;49.550;11.940;2023-06-04T10:10:25;97076.72;;;26.89;26.60
36598;BME280;22607;49.550;11.940;2023-06-04T10:13:15;97080.81;;;26.60;26.43
36598;BME280;22607;49.550;11.940;2023-06-04T10:15:44;97075.41;;;26.50;27.76
36598;BME280;22607;49.550;11.940;2023-06-04T10:18:13;97077.53;;;26.16;26.75
36598;BME280;22607;49.550;11.940;2023-06-04T10:20:41;97070.03;;;26.39;27.72
36598;BME280;22607;49.550;11.940;2023-06-04T10:23:08;97065.16;;;26.78;28.37
36598;BME280;22607;49.550;11.940;2023-06-04T10:25:41;97059.41;;;27.26;26.61
36598;BME280;22607;49.550;11.940;2023-06-04T10:28:08;97058.53;;;27.41;26.25
36598;BME280;22607;49.550;11.940;2023-06-04T10:30:35;97064.59;;;26.91;26.60
36598;BME280;22607;49.550;11.940;2023-06-04T10:33:01;97074.28;;;26.87;26.48
36598;BME280;22607;49.550;11.940;2023-06-04T10:35:34;97074.88;;;26.68;27.21
36598;BME280;22607;49.550;11.940;2023-06-04T10:38:12;97061.91;;;26.86;27.11
36598;BME280;22607;49.550;11.940;2023-06-04T10:40:47;97067.31;;;26.76;27.07
36598;BME280;22607;49.550;11.940;2023-06-04T10:43:15;97061.91;;;27.02;26.58
36598;BME280;22607;49.550;11.940;2023-06-04T10:45:42;97058.13;;;27.03;26.90
36598;BME280;22607;49.550;11.940;2023-06-04T10:48:10;97075.66;;;26.06;27.11
36598;BME280;22607;49.550;11.940;2023-06-04T10:50:51;97069.19;;;26.85;26.86
36598;BME280;22607;49.550;11.940;2023-06-04T10:53:19;97066.53;;;26.59;27.04
36598;BME280;22607;49.550;11.940;2023-06-04T10:55:47;97062.44;;;27.04;27.60
36598;BME280;22607;49.550;11.940;2023-06-04T10:58:14;97056.59;;;27.52;25.96
36598;BME280;22607;49.550;11.940;2023-06-04T11:00:45;97056.31;;;27.54;27.07
36598;BME280;22607;49.550;11.940;2023-06-04T11:03:13;97055.66;;;27.83;25.77
36598;BME280;22607;49.550;11.940;2023-06-04T11:05:42;97045.44;;;27.74;25.73
36598;BME280;22607;49.550;11.940;2023-06-04T11:08:11;97039.06;;;28.00;27.13
36598;BME280;22607;49.550;11.940;2023-06-04T11:10:44;97039.66;;;27.91;26.41
36598;BME280;22607;49.550;11.940;2023-06-04T11:13:11;97042.81;;;27.64;26.33
36598;BME280;22607;49.550;11.940;2023-06-04T11:15:45;97049.09;;;27.94;26.00
36598;BME280;22607;49.550;11.940;2023-06-04T11:18:14;97042.41;;;28.26;25.69
36598;BME280;22607;49.550;11.940;2023-06-04T11:20:43;97042.66;;;27.85;26.24
36598;BME280;22607;49.550;11.940;2023-06-04T11:23:12;97044.53;;;27.34;25.54
36598;BME280;22607;49.550;11.940;2023-06-04T11:25:45;97052.47;;;27.04;26.87
36598;BME280;22607;49.550;11.940;2023-06-04T11:28:16;97049.53;;;26.80;25.27
36598;BME280;22607;49.550;11.940;2023-06-04T11:30:56;97051.19;;;26.70;25.69
36598;BME280;22607;49.550;11.940;2023-06-04T11:33:24;97054.41;;;26.67;25.38
36598;BME280;22607;49.550;11.940;2023-06-04T11:35:50;97045.53;;;26.72;25.91
36598;BME280;22607;49.550;11.940;2023-06-04T11:38:17;97049.00;;;25.94;25.51
36598;BME280;22607;49.550;11.940;2023-06-04T11:40:44;97044.44;;;26.68;25.75
36598;BME280;22607;49.550;11.940;2023-06-04T11:43:11;97044.19;;;26.43;25.51
36598;BME280;22607;49.550;11.940;2023-06-04T11:45:38;97040.06;;;26.93;25.50
36598;BME280;22607;49.550;11.940;2023-06-04T11:48:05;97043.03;;;27.07;24.72
36598;BME280;22607;49.550;11.940;2023-06-04T11:50:32;97055.47;;;26.77;25.22
36598;BME280;22607;49.550;11.940;2023-06-04T11:52:59;97037.41;;;26.82;25.09
36598;BME280;22607;49.550;11.940;2023-06-04T11:55:28;97042.47;;;27.10;24.65
36598;BME280;22607;49.550;11.940;2023-06-04T11:57:54;97045.22;;;26.99;24.06
36598;BME280;22607;49.550;11.940;2023-06-04T12:00:22;97055.78;;;26.49;24.08
36598;BME280;22607;49.550;11.940;2023-06-04T12:02:52;97047.91;;;26.89;25.57
36598;BME280;22607;49.550;11.940;2023-06-04T12:05:28;97032.22;;;27.17;24.83
36598;BME280;22607;49.550;11.940;2023-06-04T12:08:05;97033.31;;;27.06;23.71
36598;BME280;22607;49.550;11.940;2023-06-04T12:10:40;97022.97;;;27.39;24.34
36598;BME280;22607;49.550;11.940;2023-06-04T12:13:13;97023.66;;;26.99;25.08
36598;BME280;22607;49.550;11.940;2023-06-04T12:15:40;97022.88;;;26.78;25.89
36598;BME280;22607;49.550;11.940;2023-06-04T12:18:07;97026.91;;;26.81;26.59
36598;BME280;22607;49.550;11.940;2023-06-04T12:20:40;97023.75;;;26.42;25.91
36598;BME280;22607;49.550;11.940;2023-06-04T12:23:08;97037.66;;;26.91;25.87
36598;BME280;22607;49.550;11.940;2023-06-04T12:25:35;97029.59;;;26.86;25.62
36598;BME280;22607;49.550;11.940;2023-06-04T12:28:04;97036.06;;;26.85;26.84
36598;BME280;22607;49.550;11.940;2023-06-04T12:30:35;97022.66;;;26.48;26.24
36598;BME280;22607;49.550;11.940;2023-06-04T12:33:03;97019.44;;;26.31;25.99
36598;BME280;22607;49.550;11.940;2023-06-04T12:35:29;97021.03;;;26.01;26.52
36598;BME280;22607;49.550;11.940;2023-06-04T12:37:56;97019.97;;;26.48;26.40
36598;BME280;22607;49.550;11.940;2023-06-04T12:40:24;97024.00;;;26.41;26.69
36598;BME280;22607;49.550;11.940;2023-06-04T12:42:51;97025.78;;;27.08;26.76
36598;BME280;22607;49.550;11.940;2023-06-04T12:45:17;97017.75;;;26.82;25.56
36598;BME280;22607;49.550;11.940;2023-06-04T12:47:44;97011.22;;;27.09;26.19
36598;BME280;22607;49.550;11.940;2023-06-04T12:50:11;97013.41;;;27.07;25.89
36598;BME280;22607;49.550;11.940;2023-06-04T12:52:37;97017.13;;;27.16;25.60
36598;BME280;22607;49.550;11.940;2023-06-04T12:55:04;97028.00;;;26.74;25.81
36598;BME280;22607;49.550;11.940;2023-06-04T12:57:31;97016.13;;;26.86;24.06
36598;BME280;22607;49.550;11.940;2023-06-04T12:59:58;97004.69;;;27.25;25.01
36598;BME280;22607;49.550;11.940;2023-06-04T13:02:24;97004.56;;;27.46;24.19
36598;BME280;22607;49.550;11.940;2023-06-04T13:04:51;97010.41;;;27.13;24.92